ADDS METAR Data INFO
IDs: Format: Raw Decoded Include TAF

Data at: 1501 UTC 23 Oct 2017

KONM 231455Z AUTO 31005KT 10SM CLR 11/M05 A3037 RMK AO2 T01131048
KONM 231435Z AUTO 33006KT 10SM CLR 10/M05 A3036 RMK AO2 T01011051
KONM 231415Z AUTO 30009KT 10SM CLR 09/M05 A3036 RMK AO2 T00861050
KONM 231355Z AUTO 31006KT 10SM CLR 08/M05 A3035 RMK AO2 T00801046
KONM 231335Z AUTO 33007KT 10SM CLR 08/M05 A3035 RMK AO2 T00751046
KONM 231315Z AUTO 36010KT 10SM CLR 07/M05 A3035 RMK AO2 T00701047
KONM 231255Z AUTO 35008KT 10SM CLR 07/M05 A3035 RMK AO2 T00701048
KONM 231235Z AUTO 33005KT 10SM CLR 07/M05 A3035 RMK AO2 T00681050
KONM 231215Z AUTO 33010G15KT 10SM CLR 07/M04 A3036 RMK AO2 T00731045
KONM 231155Z AUTO 36005KT 10SM CLR 08/M05 A3035 RMK AO2 T00751049 10098 20065
KONM 231135Z AUTO 33008KT 10SM CLR 08/M05 A3034 RMK AO2 T00751053
KONM 231115Z AUTO 31009KT 10SM CLR 08/M05 A3034 RMK AO2 T00771055
KONM 231055Z AUTO 32007KT 10SM CLR 08/M05 A3033 RMK AO2 T00781055
KONM 231035Z AUTO 00000KT 10SM CLR 08/M05 A3033 RMK AO2 T00751052
KONM 231015Z AUTO 00000KT 10SM CLR 07/M05 A3034 RMK AO2 T00741055
KONM 230955Z AUTO 00000KT 10SM CLR 08/M06 A3033 RMK AO2 T00831056
KONM 230935Z AUTO 00000KT 10SM CLR 07/M05 A3034 RMK AO2 T00651053
KONM 230915Z AUTO 00000KT 10SM CLR 08/M05 A3034 RMK AO2 T00791055
KONM 230855Z AUTO 00000KT 10SM CLR 07/M05 A3034 RMK AO2 T00711053
KONM 230835Z AUTO 34003KT 10SM CLR 08/M06 A3035 RMK AO2 T00771056
KONM 230815Z AUTO 00000KT 10SM CLR 08/M06 A3034 RMK AO2 T00771057
KONM 230755Z AUTO 00000KT 10SM CLR 09/M06 A3034 RMK AO2 T00881061
KONM 230735Z AUTO 31012KT 10SM CLR 10/M06 A3034 RMK AO2 T00951060
KONM 230715Z AUTO 30010KT 10SM CLR 08/M05 A3034 RMK AO2 T00811055
KONM 230655Z AUTO 32008KT 10SM CLR 08/M05 A3034 RMK AO2 T00811053
KONM 230635Z AUTO 00000KT 10SM CLR 08/M05 A3035 RMK AO2 T00791048
KONM 230615Z AUTO 00000KT 10SM CLR 08/M05 A3035 RMK AO2 T00821055
KONM 230555Z AUTO 28004KT 10SM CLR 09/M06 A3035 RMK AO2 T00931060 10211 20093 402210026
KONM 230535Z AUTO 30008KT 10SM CLR 10/M06 A3035 RMK AO2 T01011062
KONM 230515Z AUTO 29006KT 10SM CLR 10/M06 A3036 RMK AO2 T01011060
KONM 230455Z AUTO 28006KT 10SM CLR 11/M06 A3036 RMK AO2 T01101060
KONM 230435Z AUTO 24006KT 10SM CLR 11/M06 A3035 RMK AO2 T01091062
KONM 230415Z AUTO 24004KT 10SM CLR 12/M06 A3034 RMK AO2 T01151065
KONM 230355Z AUTO 24006KT 10SM CLR 12/M06 A3033 RMK AO2 T01211065
KONM 230335Z AUTO 26003KT 10SM CLR 13/M06 A3034 RMK AO2 T01261062
KONM 230315Z AUTO 00000KT 10SM CLR 11/M05 A3034 RMK AO2 T01111052
KONM 230255Z AUTO 24004KT 10SM CLR 12/M06 A3033 RMK AO2 T01201059
KONM 230235Z AUTO 27005KT 10SM CLR 12/M06 A3032 RMK AO2 T01231060
KONM 230215Z AUTO 29005KT 10SM CLR 12/M06 A3032 RMK AO2 T01241060
KONM 230155Z AUTO 30003KT 10SM CLR 13/M05 A3032 RMK AO2 T01331052
KONM 230135Z AUTO 25005KT 10SM CLR 14/M06 A3032 RMK AO2 T01401060
KONM 230115Z AUTO 26003KT 10SM CLR 14/M05 A3030 RMK AO2 T01401054
KONM 230055Z AUTO 26004KT 10SM CLR 14/M05 A3030 RMK AO2 T01411051
KONM 230035Z AUTO 00000KT 10SM CLR 19/M08 A3030 RMK AO2 T01891077
KONM 230015Z AUTO 00000KT 10SM CLR 20/M08 A3029 RMK AO2 T02021079
KONM 222355Z AUTO 00000KT 10SM CLR 21/M08 A3028 RMK AO2 T02111083 10221 20178
KONM 222335Z AUTO 00000KT 10SM CLR 21/M08 A3028 RMK AO2 T02141085
KONM 222315Z AUTO 00000KT 10SM CLR 22/M08 A3028 RMK AO2 T02161083
KONM 222255Z AUTO 13003KT 10SM CLR 22/M08 A3028 RMK AO2 T02151085
KONM 222235Z AUTO 11003KT 10SM CLR 22/M08 A3029 RMK AO2 T02171085
KONM 222215Z AUTO 00000KT 10SM CLR 22/M08 A3029 RMK AO2 T02181084
KONM 222155Z AUTO 04003KT 10SM CLR 22/M09 A3029 RMK AO2 T02171086
KONM 222135Z AUTO 00000KT 10SM CLR 21/M09 A3029 RMK AO2 T02131089
KONM 222115Z AUTO 04004KT 10SM CLR 21/M09 A3030 RMK AO2 T02091092
KONM 222055Z AUTO 36003KT 10SM CLR 21/M09 A3030 RMK AO2 T02091094
KONM 222035Z AUTO 03006KT 10SM CLR 21/M10 A3031 RMK AO2 T02081096
KONM 222015Z AUTO 03008KT 350V050 10SM CLR 21/M10 A3033 RMK AO2 T02051098
KONM 221955Z AUTO 02004KT 10SM CLR 20/M10 A3033 RMK AO2 T02041100
KONM 221935Z AUTO 01006KT 10SM CLR 20/M10 A3035 RMK AO2 T02011103
KONM 221915Z AUTO 34008KT 10SM CLR 20/M10 A3036 RMK AO2 T02021101
KONM 221855Z AUTO 01008KT 10SM CLR 19/M11 A3036 RMK AO2 T01941107
KONM 221835Z AUTO 01007KT 10SM CLR 19/M11 A3037 RMK AO2 T01911111
KONM 221815Z AUTO 36008KT 10SM CLR 19/M11 A3038 RMK AO2 T01851111
KONM 221755Z AUTO 05006KT 10SM CLR 18/M11 A3039 RMK AO2 T01771112 10179 20026
KONM 221735Z AUTO 36004KT 10SM CLR 17/M12 A3039 RMK AO2 T01721116
KONM 221715Z AUTO 03007KT 10SM CLR 17/M12 A3039 RMK AO2 T01651119
KONM 221655Z AUTO 01008KT 10SM CLR 15/M12 A3039 RMK AO2 T01541120
KONM 221635Z AUTO 01007KT 10SM CLR 14/M13 A3040 RMK AO2 T01431127
KONM 221615Z AUTO 05006KT 10SM CLR 13/M12 A3040 RMK AO2 T01321121
KONM 221555Z AUTO 04008KT 10SM CLR 12/M11 A3040 RMK AO2 T01231113
KONM 221535Z AUTO 03009KT 10SM CLR 12/M13 A3040 RMK AO2 T01151129
KONM 221515Z AUTO 02009KT 10SM CLR 11/M12 A3040 RMK AO2 T01051116
KONM 221455Z AUTO 01008KT 10SM CLR 09/M11 A3039 RMK AO2 T00871107
KONM 221435Z AUTO 35010KT 10SM CLR 07/M11 A3037 RMK AO2 T00731110
KONM 221415Z AUTO 33005KT 10SM CLR 06/M11 A3038 RMK AO2 T00571115
KONM 221355Z AUTO 34005KT 10SM CLR 05/M12 A3038 RMK AO2 T00481117
KONM 221335Z AUTO 32004KT 10SM CLR 04/M12 A3037 RMK AO2 T00361117
KONM 221315Z AUTO 32004KT 10SM CLR 04/M13 A3038 RMK AO2 T00431126
KONM 221255Z AUTO 33004KT 10SM CLR 03/M12 A3038 RMK AO2 T00271117
KONM 221235Z AUTO 32007KT 10SM CLR 04/M12 A3038 RMK AO2 T00371118
KONM 221215Z AUTO 33007KT 10SM CLR 04/M12 A3038 RMK AO2 T00371117
KONM 221155Z AUTO 33008KT 10SM CLR 05/M13 A3037 RMK AO2 T00471127 10096 20044
KONM 221135Z AUTO 31011KT 10SM CLR 05/M13 A3037 RMK AO2 T00531134
KONM 221115Z AUTO 31011KT 10SM CLR 06/M13 A3036 RMK AO2 T00561135
KONM 221055Z AUTO 31010KT 10SM CLR 07/M14 A3036 RMK AO2 T00671140
KONM 221035Z AUTO 31010KT 10SM CLR 06/M14 A3035 RMK AO2 T00641138
KONM 221015Z AUTO 31009KT 10SM CLR 06/M14 A3035 RMK AO2 T00611138
KONM 220955Z AUTO 31010KT 10SM CLR 06/M13 A3034 RMK AO2 T00601134
KONM 220935Z AUTO 31005KT 10SM CLR 05/M12 A3034 RMK AO2 T00531123
KONM 220915Z AUTO 33006KT 10SM CLR 04/M11 A3033 RMK AO2 T00441107
KONM 220855Z AUTO 00000KT 10SM CLR 05/M10 A3033 RMK AO2 T00511105
KONM 220835Z AUTO 00000KT 10SM CLR 05/M10 A3031 RMK AO2 T00511105
KONM 220815Z AUTO 00000KT 10SM CLR 06/M10 A3031 RMK AO2 T00551102
KONM 220755Z AUTO 00000KT 10SM CLR 07/M11 A3030 RMK AO2 T00671110
KONM 220735Z AUTO 00000KT 10SM CLR 08/M12 A3030 RMK AO2 T00791125
KONM 220715Z AUTO 00000KT 10SM CLR 09/M13 A3029 RMK AO2 T00861127
KONM 220655Z AUTO 33007KT 10SM CLR 08/M12 A3028 RMK AO2 T00811121
KONM 220635Z AUTO 33007KT 10SM CLR 09/M12 A3028 RMK AO2 T00861122
KONM 220615Z AUTO 00000KT 10SM CLR 09/M12 A3027 RMK AO2 T00941123
KONM 220555Z AUTO 34005KT 10SM CLR 10/M12 A3026 RMK AO2 T00971125 10204 20095 402290095
KONM 220535Z AUTO 00000KT 10SM CLR 10/M13 A3026 RMK AO2 T01031128
KONM 220515Z AUTO 34005KT 10SM CLR 10/M12 A3025 RMK AO2 T00981120
KONM 220455Z AUTO 00000KT 10SM CLR 11/M12 A3025 RMK AO2 T01051119
KONM 220435Z AUTO 00000KT 10SM CLR 11/M12 A3024 RMK AO2 T01131122
KONM 220415Z AUTO 00000KT 10SM CLR 12/M12 A3023 RMK AO2 T01191121
KONM 220355Z AUTO 06005KT 10SM CLR 12/M12 A3021 RMK AO2 T01211116
KONM 220335Z AUTO 14003KT 10SM CLR 12/M11 A3021 RMK AO2 T01161106
KONM 220315Z AUTO 00000KT 10SM CLR 14/M12 A3020 RMK AO2 T01351117